Time,TemperatureF,DewpointF,PressureIn,WindDirection,WindDirectionDegrees,WindSpeedMPH,WindSpeedGustMPH,Humidity,HourlyPrecipIn,Conditions,Clouds,dailyrainin,SoftwareType,DateUTC
2013-10-27 00:13:00,43.9,32.1,29.71,SW,225,2.7,-999.0,63,-99.99,,,0.00,Acu-Link.com,2013-10-27 04:13:00,
2013-10-27 00:28:00,44.1,32.3,29.72,WSW,247,4.7,-999.0,63,-99.99,,,0.00,Acu-Link.com,2013-10-27 04:28:00,
2013-10-27 00:43:00,44.1,32.3,29.71,WSW,247,2.7,-999.0,63,-99.99,,,0.00,Acu-Link.com,2013-10-27 04:43:00,
2013-10-27 00:58:00,43.9,33.3,29.71,WSW,247,1.1,-999.0,66,-99.99,,,0.00,Acu-Link.com,2013-10-27 04:58:00,
2013-10-27 01:14:00,43.7,33.1,29.71,WSW,247,2.2,-999.0,66,-99.99,,,0.00,Acu-Link.com,2013-10-27 05:14:00,
2013-10-27 01:29:00,43.7,33.8,29.70,WSW,247,0.0,-999.0,68,-99.99,,,0.00,Acu-Link.com,2013-10-27 05:29:00,
2013-10-27 01:45:00,43.3,33.5,29.70,WSW,247,1.6,-999.0,68,-99.99,,,0.00,Acu-Link.com,2013-10-27 05:45:00,
2013-10-27 02:00:00,43.2,34.1,29.70,WSW,247,0.0,-999.0,70,-99.99,,,0.00,Acu-Link.com,2013-10-27 06:00:00,
2013-10-27 02:15:00,42.6,34.9,29.69,WSW,247,0.0,-999.0,74,-99.99,,,0.00,Acu-Link.com,2013-10-27 06:15:00,
2013-10-27 02:31:00,42.6,34.6,29.70,WSW,247,0.0,-999.0,73,-99.99,,,0.00,Acu-Link.com,2013-10-27 06:31:00,
2013-10-27 02:46:00,42.3,34.6,29.70,WSW,247,0.0,-999.0,74,-99.99,,,0.00,Acu-Link.com,2013-10-27 06:46:00,
2013-10-27 03:03:00,41.9,34.9,29.69,WSW,247,0.0,-999.0,76,-99.99,,,0.00,Acu-Link.com,2013-10-27 07:03:00,
2013-10-27 03:18:00,41.7,35.1,29.68,WSW,247,0.0,-999.0,77,-99.99,,,0.00,Acu-Link.com,2013-10-27 07:18:00,
2013-10-27 03:33:00,41.5,34.5,29.68,WSW,247,0.0,-999.0,76,-99.99,,,0.00,Acu-Link.com,2013-10-27 07:33:00,
2013-10-27 03:48:00,41.5,35.2,29.68,SW,225,0.0,-999.0,78,-99.99,,,0.00,Acu-Link.com,2013-10-27 07:48:00,
2013-10-27 04:03:00,41.4,34.4,29.67,SW,225,0.0,-999.0,76,-99.99,,,0.00,Acu-Link.com,2013-10-27 08:03:00,
2013-10-27 04:19:00,41.4,35.0,29.67,SW,225,0.0,-999.0,78,-99.99,,,0.00,Acu-Link.com,2013-10-27 08:19:00,
2013-10-27 04:34:00,41.2,35.2,29.66,SW,225,0.0,-999.0,79,-99.99,,,0.00,Acu-Link.com,2013-10-27 08:34:00,
2013-10-27 04:50:00,41.0,35.3,29.66,SW,225,0.0,-999.0,80,-99.99,,,0.00,Acu-Link.com,2013-10-27 08:50:00,
2013-10-27 05:05:00,40.6,35.0,29.66,SW,225,0.0,-999.0,80,-99.99,,,0.00,Acu-Link.com,2013-10-27 09:05:00,
2013-10-27 05:20:00,40.3,34.6,29.65,SW,225,0.0,-999.0,80,-99.99,,,0.00,Acu-Link.com,2013-10-27 09:20:00,
2013-10-27 05:35:00,39.9,34.6,29.65,SW,225,0.0,-999.0,81,-99.99,,,0.00,Acu-Link.com,2013-10-27 09:35:00,
2013-10-27 05:50:00,39.6,34.2,29.65,SW,225,0.0,-999.0,81,-99.99,,,0.00,Acu-Link.com,2013-10-27 09:50:00,
2013-10-27 06:06:00,39.4,34.7,29.65,South,180,0.0,-999.0,83,-99.99,,,0.00,Acu-Link.com,2013-10-27 10:06:00,
2013-10-27 06:21:00,38.8,35.6,29.65,South,180,0.0,-999.0,88,-99.99,,,0.00,Acu-Link.com,2013-10-27 10:21:00,
2013-10-27 06:36:00,38.8,35.0,29.66,South,180,0.0,-999.0,86,-99.99,,,0.00,Acu-Link.com,2013-10-27 10:36:00,
2013-10-27 06:51:00,38.7,34.8,29.66,South,180,0.0,-999.0,86,-99.99,,,0.00,Acu-Link.com,2013-10-27 10:51:00,
2013-10-27 07:06:00,38.8,35.3,29.66,South,180,0.0,-999.0,87,-99.99,,,0.00,Acu-Link.com,2013-10-27 11:06:00,
2013-10-27 07:21:00,39.2,35.4,29.67,South,180,0.0,-999.0,86,-99.99,,,0.00,Acu-Link.com,2013-10-27 11:21:00,
2013-10-27 07:37:00,39.2,35.4,29.68,West,270,0.0,-999.0,86,-99.99,,,0.00,Acu-Link.com,2013-10-27 11:37:00,
2013-10-27 07:52:00,39.0,34.9,29.68,SSW,202,0.0,-999.0,85,-99.99,,,0.00,Acu-Link.com,2013-10-27 11:52:00,
2013-10-27 08:07:00,39.6,35.1,29.69,SSW,202,0.0,-999.0,84,-99.99,,,0.00,Acu-Link.com,2013-10-27 12:07:00,
2013-10-27 08:22:00,40.8,35.1,29.69,SSW,202,0.0,-999.0,80,-99.99,,,0.00,Acu-Link.com,2013-10-27 12:22:00,
2013-10-27 08:37:00,41.2,36.1,29.69,SSW,202,1.6,-999.0,82,-99.99,,,0.00,Acu-Link.com,2013-10-27 12:37:00,
2013-10-27 08:52:00,41.9,35.9,29.70,SSW,202,0.0,-999.0,79,-99.99,,,0.00,Acu-Link.com,2013-10-27 12:52:00,
2013-10-27 09:08:00,43.3,36.6,29.70,West,270,0.0,-999.0,77,-99.99,,,0.00,Acu-Link.com,2013-10-27 13:08:00,
2013-10-27 09:23:00,44.8,36.3,29.71,West,270,3.1,-999.0,72,-99.99,,,0.00,Acu-Link.com,2013-10-27 13:23:00,
2013-10-27 09:38:00,45.7,35.7,29.70,SW,225,3.1,-999.0,68,-99.99,,,0.00,Acu-Link.com,2013-10-27 13:38:00,
2013-10-27 09:53:00,46.4,35.7,29.70,West,270,2.7,-999.0,66,-99.99,,,0.00,Acu-Link.com,2013-10-27 13:53:00,
2013-10-27 10:08:00,46.0,35.7,29.70,West,270,2.2,-999.0,67,-99.99,,,0.00,Acu-Link.com,2013-10-27 14:08:00,
2013-10-27 10:24:00,46.8,36.0,29.70,West,270,1.6,-999.0,66,-99.99,,,0.00,Acu-Link.com,2013-10-27 14:24:00,
2013-10-27 10:39:00,48.4,36.4,29.71,WSW,247,2.7,-999.0,63,-99.99,,,0.00,Acu-Link.com,2013-10-27 14:39:00,
2013-10-27 10:54:00,47.3,36.1,29.70,WNW,292,1.6,-999.0,65,-99.99,,,0.00,Acu-Link.com,2013-10-27 14:54:00,
2013-10-27 11:09:00,49.3,36.4,29.71,NW,315,3.1,-999.0,61,-99.99,,,0.00,Acu-Link.com,2013-10-27 15:09:00,
2013-10-27 11:25:00,49.3,36.8,29.72,West,270,1.6,-999.0,62,-99.99,,,0.00,Acu-Link.com,2013-10-27 15:25:00,
2013-10-27 11:40:00,50.0,37.1,29.72,NNW,337,1.1,-999.0,61,-99.99,,,0.00,Acu-Link.com,2013-10-27 15:40:00,
2013-10-27 11:55:00,49.1,36.7,29.72,NNW,337,1.6,-999.0,62,-99.99,,,0.00,Acu-Link.com,2013-10-27 15:55:00,
2013-10-27 12:10:00,48.6,36.1,29.71,WNW,292,1.6,-999.0,62,-99.99,,,0.00,Acu-Link.com,2013-10-27 16:10:00,
2013-10-27 12:25:00,51.3,36.6,29.71,WSW,247,3.8,-999.0,57,-99.99,,,0.00,Acu-Link.com,2013-10-27 16:25:00,
2013-10-27 12:40:00,52.0,35.9,29.70,West,270,2.2,-999.0,54,-99.99,,,0.00,Acu-Link.com,2013-10-27 16:40:00,
2013-10-27 12:56:00,51.6,36.0,29.70,West,270,1.6,-999.0,55,-99.99,,,0.00,Acu-Link.com,2013-10-27 16:56:00,
2013-10-27 13:11:00,52.0,35.4,29.70,WSW,247,2.7,-999.0,53,-99.99,,,0.00,Acu-Link.com,2013-10-27 17:11:00,
2013-10-27 13:26:00,51.8,34.7,29.70,West,270,2.2,-999.0,52,-99.99,,,0.00,Acu-Link.com,2013-10-27 17:26:00,
2013-10-27 13:41:00,51.1,35.0,29.70,SSW,202,2.2,-999.0,54,-99.99,,,0.00,Acu-Link.com,2013-10-27 17:41:00,
2013-10-27 13:56:00,51.3,33.3,29.70,SW,225,1.6,-999.0,50,-99.99,,,0.00,Acu-Link.com,2013-10-27 17:56:00,
2013-10-27 14:11:00,51.1,33.6,29.70,WSW,247,0.0,-999.0,51,-99.99,,,0.00,Acu-Link.com,2013-10-27 18:11:00,
2013-10-27 14:27:00,50.7,34.2,29.70,NW,315,1.6,-999.0,53,-99.99,,,0.00,Acu-Link.com,2013-10-27 18:27:00,
2013-10-27 14:42:00,50.0,31.6,29.70,WSW,247,2.7,-999.0,49,-99.99,,,0.00,Acu-Link.com,2013-10-27 18:42:00,
2013-10-27 14:57:00,49.8,33.4,29.70,West,270,0.0,-999.0,53,-99.99,,,0.00,Acu-Link.com,2013-10-27 18:57:00,
2013-10-27 15:12:00,51.1,32.1,29.70,WNW,292,1.6,-999.0,48,-99.99,,,0.00,Acu-Link.com,2013-10-27 19:12:00,
2013-10-27 15:27:00,51.1,31.6,29.71,SE,135,2.7,-999.0,47,-99.99,,,0.00,Acu-Link.com,2013-10-27 19:27:00,
2013-10-27 15:43:00,50.5,32.6,29.71,WNW,292,0.0,-999.0,50,-99.99,,,0.00,Acu-Link.com,2013-10-27 19:43:00,
2013-10-27 15:58:00,49.6,33.2,29.71,WSW,247,1.6,-999.0,53,-99.99,,,0.00,Acu-Link.com,2013-10-27 19:58:00,
2013-10-27 16:13:00,48.9,33.5,29.73,West,270,2.7,-999.0,55,-99.99,,,0.00,Acu-Link.com,2013-10-27 20:13:00,
2013-10-27 16:28:00,48.4,33.9,29.73,SW,225,2.7,-999.0,57,-99.99,,,0.00,Acu-Link.com,2013-10-27 20:28:00,
2013-10-27 16:43:00,47.7,33.6,29.74,ESE,112,4.3,-999.0,58,-99.99,,,0.00,Acu-Link.com,2013-10-27 20:43:00,
2013-10-27 16:59:00,46.2,33.9,29.75,West,270,0.0,-999.0,62,-99.99,,,0.00,Acu-Link.com,2013-10-27 20:59:00,
2013-10-27 17:14:00,46.0,32.1,29.76,NW,315,3.1,-999.0,58,-99.99,,,0.00,Acu-Link.com,2013-10-27 21:14:00,
2013-10-27 17:29:00,45.5,32.4,29.77,West,270,1.1,-999.0,60,-99.99,,,0.00,Acu-Link.com,2013-10-27 21:29:00,
2013-10-27 17:44:00,43.9,30.9,29.78,WNW,292,2.7,-999.0,60,-99.99,,,0.00,Acu-Link.com,2013-10-27 21:44:00,
2013-10-27 18:00:00,43.0,31.3,29.79,NW,315,0.0,-999.0,63,-99.99,,,0.00,Acu-Link.com,2013-10-27 22:00:00,
2013-10-27 18:15:00,42.8,31.5,29.81,WNW,292,0.0,-999.0,64,-99.99,,,0.00,Acu-Link.com,2013-10-27 22:15:00,
2013-10-27 18:30:00,42.4,31.1,29.81,WNW,292,0.0,-999.0,64,-99.99,,,0.00,Acu-Link.com,2013-10-27 22:30:00,
2013-10-27 18:45:00,41.9,31.4,29.82,WNW,292,0.0,-999.0,66,-99.99,,,0.00,Acu-Link.com,2013-10-27 22:45:00,
2013-10-27 19:01:00,40.8,30.4,29.83,SSW,202,0.0,-999.0,66,-99.99,,,0.00,Acu-Link.com,2013-10-27 23:01:00,
2013-10-27 19:16:00,39.2,29.5,29.83,SSW,202,0.0,-999.0,68,-99.99,,,0.00,Acu-Link.com,2013-10-27 23:16:00,
2013-10-27 19:31:00,37.9,29.4,29.84,SSW,202,0.0,-999.0,71,-99.99,,,0.00,Acu-Link.com,2013-10-27 23:31:00,
2013-10-27 19:46:00,37.2,29.0,29.84,SSW,202,0.0,-999.0,72,-99.99,,,0.00,Acu-Link.com,2013-10-27 23:46:00,
2013-10-27 20:01:00,36.9,29.0,29.85,ESE,112,0.0,-999.0,73,-99.99,,,0.00,Acu-Link.com,2013-10-28 00:01:00,
2013-10-27 20:17:00,36.3,28.8,29.85,ESE,112,0.0,-999.0,74,-99.99,,,0.00,Acu-Link.com,2013-10-28 00:17:00,
2013-10-27 20:32:00,35.8,28.6,29.85,ESE,112,0.0,-999.0,75,-99.99,,,0.00,Acu-Link.com,2013-10-28 00:32:00,
2013-10-27 20:47:00,35.1,28.0,29.86,ESE,112,0.0,-999.0,75,-99.99,,,0.00,Acu-Link.com,2013-10-28 00:47:00,
2013-10-27 21:02:00,34.5,28.1,29.86,ESE,112,0.0,-999.0,77,-99.99,,,0.00,Acu-Link.com,2013-10-28 01:02:00,
2013-10-27 21:18:00,33.8,28.3,29.87,ESE,112,0.0,-999.0,80,-99.99,,,0.00,Acu-Link.com,2013-10-28 01:18:00,
2013-10-27 21:33:00,33.1,27.9,29.88,ESE,112,0.0,-999.0,81,-99.99,,,0.00,Acu-Link.com,2013-10-28 01:33:00,
2013-10-27 21:48:00,32.2,27.3,29.89,ESE,112,0.0,-999.0,82,-99.99,,,0.00,Acu-Link.com,2013-10-28 01:48:00,
2013-10-27 22:03:00,31.8,27.5,29.89,ESE,112,0.0,-999.0,84,-99.99,,,0.00,Acu-Link.com,2013-10-28 02:03:00,
2013-10-27 22:19:00,30.9,27.0,29.89,ESE,112,0.0,-999.0,85,-99.99,,,0.00,Acu-Link.com,2013-10-28 02:19:00,
2013-10-27 22:34:00,30.6,27.2,29.89,ESE,112,1.6,-999.0,87,-99.99,,,0.00,Acu-Link.com,2013-10-28 02:34:00,
2013-10-27 22:49:00,30.0,26.9,29.90,ESE,112,1.6,-999.0,88,-99.99,,,0.00,Acu-Link.com,2013-10-28 02:49:00,
2013-10-27 23:05:00,29.7,26.8,29.91,ESE,112,0.0,-999.0,89,-99.99,,,0.00,Acu-Link.com,2013-10-28 03:05:00,
2013-10-27 23:20:00,29.3,26.7,29.91,ESE,112,0.0,-999.0,90,-99.99,,,0.00,Acu-Link.com,2013-10-28 03:20:00,
2013-10-27 23:35:00,29.1,26.8,29.91,ESE,112,0.0,-999.0,91,-99.99,,,0.00,Acu-Link.com,2013-10-28 03:35:00,
2013-10-27 23:50:00,28.6,26.6,29.91,ESE,112,0.0,-999.0,92,-99.99,,,0.00,Acu-Link.com,2013-10-28 03:50:00,